createdAt,value
2017-10-01T00:02:24.329Z,12.53
2017-10-01T00:04:52.814Z,12.54
2017-10-01T00:07:21.393Z,12.52
2017-10-01T00:09:49.833Z,12.51
2017-10-01T00:12:19.060Z,12.52
2017-10-01T00:14:47.497Z,12.48
2017-10-01T00:17:15.961Z,12.51
2017-10-01T00:19:44.404Z,12.49
2017-10-01T00:22:12.865Z,12.48
2017-10-01T00:24:42.073Z,12.46
2017-10-01T00:27:11.328Z,12.47
2017-10-01T00:29:39.769Z,12.50
2017-10-01T00:32:08.270Z,12.45
2017-10-01T00:34:36.752Z,12.43
2017-10-01T00:37:05.235Z,12.45
2017-10-01T00:39:33.701Z,12.48
2017-10-01T00:42:02.137Z,12.47
2017-10-01T00:44:30.597Z,12.47
2017-10-01T00:46:59.043Z,12.45
2017-10-01T00:49:27.504Z,12.43
2017-10-01T00:51:56.709Z,12.44
2017-10-01T00:54:25.941Z,12.46
2017-10-01T00:56:54.380Z,12.42
2017-10-01T00:59:23.721Z,12.43
2017-10-01T01:01:52.197Z,12.43
2017-10-01T01:04:20.656Z,12.40
2017-10-01T01:06:49.856Z,12.42
2017-10-01T01:09:19.188Z,12.39
2017-10-01T01:11:47.671Z,12.34
2017-10-01T01:14:16.153Z,12.33
2017-10-01T01:16:44.628Z,12.34
2017-10-01T01:19:13.113Z,12.29
2017-10-01T01:21:41.572Z,12.30
2017-10-01T01:24:10.081Z,12.28
2017-10-01T01:26:38.540Z,12.26
2017-10-01T01:29:07.148Z,12.25
2017-10-01T01:31:35.640Z,12.19
2017-10-01T01:34:04.083Z,12.18
2017-10-01T01:36:32.548Z,12.19
2017-10-01T01:39:01.753Z,12.16
2017-10-01T01:41:30.981Z,12.17
2017-10-01T01:43:59.464Z,12.11
2017-10-01T01:46:28.053Z,12.09
2017-10-01T01:48:56.541Z,12.05
2017-10-01T01:51:24.980Z,12.02
2017-10-01T01:53:54.212Z,11.98
2017-10-01T01:56:22.702Z,11.96
2017-10-01T01:58:51.160Z,11.92
2017-10-01T02:01:19.606Z,11.91
2017-10-01T02:03:48.146Z,11.90
2017-10-01T02:06:16.631Z,11.89
2017-10-01T02:08:45.097Z,11.86
2017-10-01T02:11:13.541Z,11.92
2017-10-01T02:13:42.005Z,11.88
2017-10-01T02:16:10.457Z,11.91
2017-10-01T02:18:38.927Z,11.93
2017-10-01T02:21:07.417Z,11.96
2017-10-01T02:23:35.910Z,12.00
2017-10-01T02:26:04.385Z,12.01
2017-10-01T02:28:32.869Z,11.98
2017-10-01T02:31:01.309Z,11.98
2017-10-01T02:33:30.521Z,11.97
2017-10-01T02:35:58.985Z,12.00
2017-10-01T02:38:28.198Z,12.01
2017-10-01T02:40:57.526Z,12.03
2017-10-01T02:43:25.969Z,12.00
2017-10-01T02:45:55.196Z,12.04
2017-10-01T02:48:23.689Z,12.03
2017-10-01T02:50:52.197Z,12.00
2017-10-01T02:53:20.643Z,12.03
2017-10-01T02:55:49.148Z,12.00
2017-10-01T02:58:17.589Z,12.03
2017-10-01T03:00:46.817Z,12.02
2017-10-01T03:03:15.261Z,11.99
2017-10-01T03:05:44.581Z,11.99
2017-10-01T03:08:13.030Z,12.01
2017-10-01T03:10:41.497Z,12.00
2017-10-01T03:13:09.942Z,12.02
2017-10-01T03:15:38.409Z,12.00
2017-10-01T03:18:06.910Z,12.00
2017-10-01T03:20:35.395Z,11.99
2017-10-01T03:23:03.861Z,12.03
2017-10-01T03:25:32.296Z,12.03
2017-10-01T03:28:00.844Z,12.02
2017-10-01T03:30:29.324Z,12.01
2017-10-01T03:32:57.910Z,12.05
2017-10-01T03:35:26.354Z,12.01
2017-10-01T03:37:54.872Z,12.06
2017-10-01T03:40:23.349Z,12.09
2017-10-01T03:42:51.876Z,12.08
2017-10-01T03:45:20.318Z,12.06
2017-10-01T03:47:48.777Z,12.06
2017-10-01T03:50:17.216Z,12.09
2017-10-01T03:52:45.685Z,12.05
2017-10-01T03:55:14.129Z,12.03
2017-10-01T03:57:42.593Z,12.08
2017-10-01T04:00:11.801Z,12.08
2017-10-01T04:02:40.306Z,12.10
2017-10-01T04:05:08.748Z,12.07
2017-10-01T04:07:37.956Z,12.10
2017-10-01T04:10:07.181Z,12.16
2017-10-01T04:12:35.625Z,12.16
2017-10-01T04:15:04.858Z,12.14
2017-10-01T04:17:33.305Z,12.12
2017-10-01T04:20:02.645Z,12.15
2017-10-01T04:22:31.084Z,12.17
2017-10-01T04:25:00.313Z,12.09
2017-10-01T04:27:28.748Z,12.12
2017-10-01T04:29:57.217Z,12.09
2017-10-01T04:32:25.671Z,12.11
2017-10-01T04:34:54.141Z,12.11
2017-10-01T04:37:22.641Z,12.09
2017-10-01T04:39:51.225Z,12.05
2017-10-01T04:42:19.701Z,12.04
2017-10-01T04:44:48.177Z,12.00
2017-10-01T04:47:16.617Z,12.00
2017-10-01T04:49:45.076Z,12.02
2017-10-01T04:52:13.517Z,12.03
2017-10-01T04:54:42.005Z,12.01
2017-10-01T04:57:10.497Z,12.04
2017-10-01T04:59:38.973Z,12.03
2017-10-01T05:02:07.440Z,12.03
2017-10-01T05:04:35.885Z,12.00
2017-10-01T05:07:04.353Z,12.01
2017-10-01T05:09:32.907Z,12.04
2017-10-01T05:12:01.378Z,12.10
2017-10-01T05:14:29.821Z,12.11
2017-10-01T05:16:59.061Z,12.08
2017-10-01T05:19:27.502Z,12.09
2017-10-01T05:21:56.863Z,12.09
2017-10-01T05:24:25.305Z,12.09
2017-10-01T05:26:54.538Z,12.14
2017-10-01T05:29:22.976Z,12.23
2017-10-01T05:31:52.230Z,12.28
2017-10-01T05:34:20.673Z,12.19
2017-10-01T05:36:49.186Z,12.30
2017-10-01T05:39:17.764Z,12.29
2017-10-01T05:41:46.208Z,12.33
2017-10-01T05:44:15.442Z,12.34
2017-10-01T05:46:43.892Z,12.37
2017-10-01T05:49:13.121Z,12.32
2017-10-01T05:51:41.575Z,12.40
2017-10-01T05:54:10.909Z,12.38
2017-10-01T05:56:39.362Z,12.35
2017-10-01T05:59:08.691Z,12.37
2017-10-01T06:01:37.177Z,12.37
2017-10-01T06:04:05.754Z,12.43
2017-10-01T06:06:34.198Z,12.33
2017-10-01T06:09:03.436Z,12.44
2017-10-01T06:11:31.886Z,12.39
2017-10-01T06:14:01.227Z,12.35
2017-10-01T06:16:30.535Z,12.37
2017-10-01T06:18:59.021Z,12.42
2017-10-01T06:21:27.610Z,12.43
2017-10-01T06:23:56.073Z,12.49
2017-10-01T06:26:24.551Z,12.49
2017-10-01T06:28:53.033Z,12.53
2017-10-01T06:31:21.507Z,12.54
2017-10-01T06:33:49.950Z,12.58
2017-10-01T06:36:19.190Z,12.59
2017-10-01T06:38:47.633Z,12.63
2017-10-01T06:41:16.984Z,12.63
2017-10-01T06:43:45.442Z,12.67
2017-10-01T06:46:13.914Z,12.68
2017-10-01T06:48:43.125Z,12.68
2017-10-01T06:51:11.589Z,12.70
2017-10-01T06:53:40.805Z,12.68
2017-10-01T06:56:09.273Z,12.72
2017-10-01T06:58:38.486Z,12.60
2017-10-01T07:01:06.985Z,12.56
2017-10-01T07:03:35.470Z,12.55
2017-10-01T07:06:03.962Z,12.55
2017-10-01T07:08:32.429Z,12.63
2017-10-01T07:11:00.874Z,12.59
2017-10-01T07:13:30.218Z,12.57
2017-10-01T07:15:58.703Z,12.61
2017-10-01T07:18:27.169Z,12.60
2017-10-01T07:20:55.608Z,12.67
2017-10-01T07:23:24.140Z,12.68
2017-10-01T07:25:52.597Z,12.72
2017-10-01T07:28:21.830Z,12.73
2017-10-01T07:30:50.314Z,12.71
2017-10-01T07:33:18.789Z,12.78
2017-10-01T07:35:47.244Z,12.87
2017-10-01T07:38:16.510Z,12.98
2017-10-01T07:40:44.948Z,13.07
2017-10-01T07:43:13.389Z,13.14
2017-10-01T07:45:42.626Z,13.18
2017-10-01T07:48:11.070Z,13.24
2017-10-01T07:50:40.301Z,13.26
2017-10-01T07:53:08.745Z,13.38
2017-10-01T07:55:37.213Z,13.30
2017-10-01T07:58:05.765Z,13.46
2017-10-01T08:00:34.239Z,13.58
2017-10-01T08:03:02.721Z,13.67
2017-10-01T08:05:31.189Z,13.58
2017-10-01T08:07:59.633Z,13.70
2017-10-01T08:10:28.239Z,13.70
2017-10-01T08:12:57.454Z,13.74
2017-10-01T08:15:25.926Z,13.69
2017-10-01T08:17:55.142Z,13.68
2017-10-01T08:20:23.609Z,13.66
2017-10-01T08:22:52.803Z,13.66
2017-10-01T08:25:22.140Z,13.66
2017-10-01T08:27:50.581Z,13.70
2017-10-01T08:30:19.815Z,13.73
2017-10-01T08:32:48.284Z,13.87
2017-10-01T08:35:16.732Z,13.88
2017-10-01T08:37:45.969Z,13.83
2017-10-01T08:40:14.466Z,13.90
2017-10-01T08:42:43.037Z,13.90
2017-10-01T08:45:11.486Z,13.92
2017-10-01T08:47:40.717Z,14.01
2017-10-01T08:50:09.229Z,14.12
2017-10-01T08:52:37.697Z,14.24
2017-10-01T08:55:06.173Z,14.14
2017-10-01T08:57:34.762Z,14.16
2017-10-01T09:00:03.245Z,14.16
2017-10-01T09:02:31.713Z,14.31
2017-10-01T09:05:00.157Z,14.38
2017-10-01T09:07:29.414Z,14.31
2017-10-01T09:09:57.853Z,14.40
2017-10-01T09:12:27.066Z,14.29
2017-10-01T09:14:55.566Z,14.22
2017-10-01T09:17:24.053Z,14.20
2017-10-01T09:19:52.522Z,14.20
2017-10-01T09:22:20.965Z,14.16
2017-10-01T09:24:50.201Z,14.12
2017-10-01T09:27:18.698Z,14.30
2017-10-01T09:29:47.282Z,14.28
2017-10-01T09:32:15.727Z,14.23
2017-10-01T09:34:44.962Z,14.16
2017-10-01T09:37:13.405Z,14.15
2017-10-01T09:39:42.638Z,14.06
2017-10-01T09:42:11.084Z,14.18
2017-10-01T09:44:40.426Z,14.32
2017-10-01T09:47:08.909Z,14.42
2017-10-01T09:49:37.353Z,14.47
2017-10-01T09:52:06.581Z,14.57
2017-10-01T09:54:35.038Z,14.83
2017-10-01T09:57:04.382Z,14.90
2017-10-01T09:59:32.862Z,15.04
2017-10-01T10:02:01.433Z,15.13
2017-10-01T10:04:29.923Z,15.23
2017-10-01T10:06:58.381Z,14.84
2017-10-01T10:09:26.890Z,14.79
2017-10-01T10:11:55.593Z,14.81
2017-10-01T10:14:24.037Z,14.84
2017-10-01T10:16:52.532Z,14.91
2017-10-01T10:19:20.978Z,14.88
2017-10-01T10:21:50.213Z,15.01
2017-10-01T10:24:18.663Z,15.09
2017-10-01T10:26:47.897Z,14.98
2017-10-01T10:29:16.586Z,14.90
2017-10-01T10:31:45.066Z,15.07
2017-10-01T10:34:13.538Z,15.06
2017-10-01T10:36:41.976Z,15.02
2017-10-01T10:39:10.441Z,14.95
2017-10-01T10:41:38.887Z,14.77
2017-10-01T10:44:07.353Z,14.77
2017-10-01T10:46:35.960Z,14.77
2017-10-01T10:49:04.545Z,14.56
2017-10-01T10:51:32.989Z,14.69
2017-10-01T10:54:02.327Z,14.76
2017-10-01T10:56:30.772Z,14.89
2017-10-01T10:59:00.100Z,14.87
2017-10-01T11:01:28.542Z,14.85
2017-10-01T11:03:57.885Z,14.80
2017-10-01T11:06:26.333Z,14.80
2017-10-01T11:08:55.537Z,14.68
2017-10-01T11:11:24.772Z,14.67
2017-10-01T11:13:53.264Z,14.82
2017-10-01T11:16:21.734Z,14.88
2017-10-01T11:18:50.176Z,14.95
2017-10-01T11:21:19.406Z,14.96
2017-10-01T11:23:47.901Z,15.03
2017-10-01T11:26:16.370Z,14.98
2017-10-01T11:28:44.813Z,14.83
2017-10-01T11:31:14.041Z,14.73
2017-10-01T11:33:42.485Z,14.75
2017-10-01T11:36:10.945Z,14.74
2017-10-01T11:38:39.385Z,14.72
2017-10-01T11:41:07.850Z,14.56
2017-10-01T11:43:37.069Z,14.39
2017-10-01T11:46:05.553Z,14.40
2017-10-01T11:48:33.997Z,14.46
2017-10-01T11:51:02.473Z,14.37
2017-10-01T11:53:30.954Z,14.44
2017-10-01T11:55:59.407Z,14.39
2017-10-01T11:58:27.982Z,14.34
2017-10-01T12:00:56.462Z,14.37
2017-10-01T12:03:24.929Z,14.37
2017-10-01T12:05:53.368Z,14.42
2017-10-01T12:08:21.902Z,14.41
2017-10-01T12:10:50.345Z,14.31
2017-10-01T12:13:19.588Z,14.26
2017-10-01T12:15:48.034Z,14.20
2017-10-01T12:18:17.268Z,14.17
2017-10-01T12:20:45.840Z,14.25
2017-10-01T12:23:14.330Z,14.21
2017-10-01T12:25:42.822Z,14.23
2017-10-01T12:28:11.300Z,14.18
2017-10-01T12:30:39.770Z,14.25
2017-10-01T12:33:08.229Z,14.18
2017-10-01T12:35:37.462Z,14.28
2017-10-01T12:38:05.918Z,14.34
2017-10-01T12:40:34.426Z,14.24
2017-10-01T12:43:02.910Z,14.29
2017-10-01T12:45:31.380Z,14.34
2017-10-01T12:47:59.838Z,14.19
2017-10-01T12:50:29.073Z,14.12
2017-10-01T12:52:57.861Z,14.10
2017-10-01T12:55:26.320Z,14.12
2017-10-01T12:57:54.769Z,14.28
2017-10-01T13:00:28.838Z,14.19
2017-10-01T13:02:57.313Z,14.39
2017-10-01T13:05:25.781Z,14.36
2017-10-01T13:07:54.229Z,14.27
2017-10-01T13:10:22.722Z,14.18
2017-10-01T13:12:51.925Z,14.26
2017-10-01T13:15:21.138Z,14.26
2017-10-01T13:17:49.614Z,14.28
2017-10-01T13:20:18.064Z,14.36
2017-10-01T13:22:46.538Z,14.28
2017-10-01T13:25:14.983Z,14.36
2017-10-01T13:27:43.575Z,14.27
2017-10-01T13:30:12.055Z,14.16
2017-10-01T13:32:40.517Z,14.26
2017-10-01T13:35:09.019Z,14.30
2017-10-01T13:37:37.486Z,14.34
2017-10-01T13:40:05.933Z,14.33
2017-10-01T13:42:35.165Z,14.30
2017-10-01T13:45:03.659Z,14.28
2017-10-01T13:47:32.145Z,14.39
2017-10-01T13:50:00.593Z,14.39
2017-10-01T13:52:29.822Z,14.60
2017-10-01T13:54:58.284Z,14.40
2017-10-01T13:57:26.721Z,14.43
2017-10-01T13:59:55.181Z,14.41
2017-10-01T14:02:23.653Z,14.46
2017-10-01T14:04:52.121Z,14.66
2017-10-01T14:07:20.569Z,14.62
2017-10-01T14:09:49.812Z,14.70
2017-10-01T14:12:18.257Z,14.81
2017-10-01T14:14:47.602Z,14.71
2017-10-01T14:17:16.041Z,14.59
2017-10-01T14:19:45.279Z,14.58
2017-10-01T14:22:13.725Z,14.58
2017-10-01T14:24:42.962Z,14.62
2017-10-01T14:27:11.432Z,14.55
2017-10-01T14:29:39.902Z,14.58
2017-10-01T14:32:08.406Z,14.69
2017-10-01T14:34:36.897Z,14.62
2017-10-01T14:37:05.364Z,14.66
2017-10-01T14:39:33.822Z,14.73
2017-10-01T14:42:03.053Z,14.78
2017-10-01T14:44:31.501Z,14.89
2017-10-01T14:47:00.738Z,14.92
2017-10-01T14:49:29.185Z,14.91
2017-10-01T14:51:57.651Z,14.95
2017-10-01T14:54:26.856Z,14.90
2017-10-01T14:56:56.086Z,14.89
2017-10-01T14:59:24.578Z,14.90
2017-10-01T15:01:53.155Z,14.88
2017-10-01T15:04:21.643Z,14.98
2017-10-01T15:06:50.104Z,15.00
2017-10-01T15:09:18.541Z,14.88
2017-10-01T15:11:52.982Z,14.84
2017-10-01T15:14:22.193Z,14.97
2017-10-01T15:16:51.425Z,15.11
2017-10-01T15:19:19.909Z,15.11
2017-10-01T15:21:48.491Z,15.06
2017-10-01T15:24:16.937Z,15.02
2017-10-01T15:26:46.174Z,14.89
2017-10-01T15:29:14.751Z,14.86
2017-10-01T15:31:43.205Z,14.85
2017-10-01T15:34:12.438Z,14.87
2017-10-01T15:36:40.881Z,14.97
2017-10-01T15:39:10.112Z,15.09
2017-10-01T15:41:38.566Z,15.12
2017-10-01T15:44:07.806Z,15.02
2017-10-01T15:46:36.282Z,14.95
2017-10-01T15:49:04.870Z,14.95
2017-10-01T15:51:33.321Z,14.91
2017-10-01T15:54:01.831Z,15.02
2017-10-01T15:56:30.282Z,14.93
2017-10-01T15:58:58.725Z,14.79
2017-10-01T16:01:27.193Z,14.85
2017-10-01T16:03:55.759Z,14.93
2017-10-01T16:06:24.230Z,14.95
2017-10-01T16:08:52.713Z,14.91
2017-10-01T16:11:21.182Z,14.95
2017-10-01T16:13:49.633Z,14.98
2017-10-01T16:16:18.106Z,14.95
2017-10-01T16:18:46.650Z,14.95
2017-10-01T16:21:15.235Z,14.93
2017-10-01T16:23:43.682Z,14.91
2017-10-01T16:26:13.017Z,14.91
2017-10-01T16:28:41.462Z,14.85
2017-10-01T16:31:10.698Z,14.84
2017-10-01T16:33:39.172Z,14.80
2017-10-01T16:36:08.325Z,14.73
2017-10-01T16:38:36.853Z,14.74
2017-10-01T16:41:05.342Z,14.77
2017-10-01T16:43:33.789Z,14.74
2017-10-01T16:46:03.016Z,14.64
2017-10-01T16:48:31.495Z,14.59
2017-10-01T16:50:59.989Z,14.62
2017-10-01T16:53:28.462Z,14.63
2017-10-01T16:55:56.946Z,14.63
2017-10-01T16:58:25.417Z,14.55
2017-10-01T17:00:53.918Z,14.52
2017-10-01T17:03:22.501Z,14.47
2017-10-01T17:05:50.994Z,14.48
2017-10-01T17:08:19.461Z,14.46
2017-10-01T17:10:47.914Z,14.41
2017-10-01T17:13:17.248Z,14.39
2017-10-01T17:15:45.689Z,14.33
2017-10-01T17:18:15.026Z,14.37
2017-10-01T17:20:43.471Z,14.36
2017-10-01T17:23:12.681Z,14.38
2017-10-01T17:25:41.301Z,14.38
2017-10-01T17:28:09.758Z,14.37
2017-10-01T17:30:38.262Z,14.39
2017-10-01T17:33:06.745Z,14.37
2017-10-01T17:35:35.221Z,14.35
2017-10-01T17:38:03.701Z,14.33
2017-10-01T17:40:32.165Z,14.27
2017-10-01T17:43:00.617Z,14.30
2017-10-01T17:45:29.849Z,14.34
2017-10-01T17:47:58.302Z,14.34
2017-10-01T17:50:27.644Z,14.33
2017-10-01T17:52:56.137Z,14.35
2017-10-01T17:55:24.606Z,14.34
2017-10-01T17:57:53.100Z,14.32
2017-10-01T18:00:21.565Z,14.30
2017-10-01T18:02:50.028Z,14.27
2017-10-01T18:05:18.490Z,14.22
2017-10-01T18:07:47.138Z,14.21
2017-10-01T18:10:15.581Z,14.26
2017-10-01T18:12:44.815Z,14.21
2017-10-01T18:15:13.260Z,14.18
2017-10-01T18:17:42.494Z,14.15
2017-10-01T18:20:10.974Z,14.20
2017-10-01T18:22:39.437Z,14.13
2017-10-01T18:25:07.886Z,14.15
2017-10-01T18:27:37.238Z,14.15
2017-10-01T18:30:05.723Z,14.15
2017-10-01T18:32:34.304Z,14.16
2017-10-01T18:35:02.789Z,14.10
2017-10-01T18:37:31.366Z,14.14
2017-10-01T18:39:59.819Z,14.18
2017-10-01T18:42:29.155Z,14.13
2017-10-01T18:44:57.706Z,14.16
2017-10-01T18:47:27.015Z,14.16
2017-10-01T18:49:55.530Z,14.14
2017-10-01T18:52:25.634Z,14.11
2017-10-01T18:54:54.126Z,14.04
2017-10-01T18:57:22.601Z,13.97
2017-10-01T18:59:51.209Z,14.00
2017-10-01T19:02:19.664Z,13.98
2017-10-01T19:04:48.155Z,13.99
2017-10-01T19:07:16.605Z,14.03
2017-10-01T19:09:45.928Z,14.02
2017-10-01T19:12:14.373Z,14.02
2017-10-01T19:14:43.619Z,14.04
2017-10-01T19:17:12.065Z,14.01
2017-10-01T19:19:41.295Z,14.02
2017-10-01T19:22:09.737Z,14.03
2017-10-01T19:24:38.988Z,14.06
2017-10-01T19:27:07.433Z,14.09
2017-10-01T19:29:35.896Z,14.09
2017-10-01T19:32:05.150Z,14.10
2017-10-01T19:34:33.621Z,14.12
2017-10-01T19:37:02.073Z,14.15
2017-10-01T19:39:31.402Z,14.19
2017-10-01T19:41:59.837Z,14.20
2017-10-01T19:44:29.090Z,14.20
2017-10-01T19:46:57.566Z,14.18
2017-10-01T19:49:26.045Z,14.17
2017-10-01T19:51:54.486Z,14.16
2017-10-01T19:54:23.694Z,14.13
2017-10-01T19:56:52.942Z,14.14
2017-10-01T19:59:21.410Z,14.15
2017-10-01T20:01:49.898Z,14.10
2017-10-01T20:04:18.354Z,14.14
2017-10-01T20:06:46.853Z,14.09
2017-10-01T20:09:15.294Z,14.05
2017-10-01T20:11:44.537Z,13.97
2017-10-01T20:14:12.977Z,13.91
2017-10-01T20:16:42.201Z,13.86
2017-10-01T20:19:10.637Z,13.78
2017-10-01T20:21:39.118Z,13.70
2017-10-01T20:24:07.664Z,13.66
2017-10-01T20:26:36.107Z,13.60
2017-10-01T20:29:05.454Z,13.50
2017-10-01T20:31:33.929Z,13.46
2017-10-01T20:34:02.393Z,13.44
2017-10-01T20:36:30.839Z,13.40
2017-10-01T20:38:59.309Z,13.36
2017-10-01T20:41:27.755Z,13.35
2017-10-01T20:43:56.247Z,13.36
2017-10-01T20:46:24.694Z,13.37
2017-10-01T20:48:53.166Z,13.34
2017-10-01T20:51:22.373Z,13.30
2017-10-01T20:53:51.605Z,13.26
2017-10-01T20:56:20.099Z,13.20
2017-10-01T20:58:48.580Z,13.19
2017-10-01T21:01:17.051Z,13.17
2017-10-01T21:03:45.554Z,13.17
2017-10-01T21:06:14.014Z,13.16
2017-10-01T21:08:42.901Z,13.17
2017-10-01T21:11:11.406Z,13.14
2017-10-01T21:13:39.853Z,13.13
2017-10-01T21:16:08.328Z,13.11
2017-10-01T21:18:36.769Z,13.06
2017-10-01T21:21:05.238Z,13.02
2017-10-01T21:23:33.798Z,12.99
2017-10-01T21:26:02.372Z,12.96
2017-10-01T21:28:30.866Z,12.93
2017-10-01T21:30:59.338Z,12.91
2017-10-01T21:33:27.830Z,12.91
2017-10-01T21:35:56.515Z,12.86
2017-10-01T21:38:24.993Z,12.87
2017-10-01T21:40:53.453Z,12.87
2017-10-01T21:43:21.893Z,12.89
2017-10-01T21:45:50.377Z,12.88
2017-10-01T21:48:18.818Z,12.89
2017-10-01T21:50:47.305Z,12.86
2017-10-01T21:53:15.773Z,12.90
2017-10-01T21:55:44.217Z,12.91
2017-10-01T21:58:13.454Z,12.94
2017-10-01T22:00:41.956Z,13.00
2017-10-01T22:03:10.524Z,13.06
2017-10-01T22:05:39.017Z,13.08
2017-10-01T22:08:07.477Z,13.11
2017-10-01T22:10:35.925Z,13.12
2017-10-01T22:13:04.462Z,13.19
2017-10-01T22:15:32.945Z,13.18
2017-10-01T22:18:01.531Z,13.21
2017-10-01T22:20:29.969Z,13.22
2017-10-01T22:22:59.201Z,13.23
2017-10-01T22:25:27.646Z,13.25
2017-10-01T22:27:56.848Z,13.26
2017-10-01T22:30:26.077Z,13.29
2017-10-01T22:32:54.521Z,13.30
2017-10-01T22:35:23.872Z,13.32
2017-10-01T22:37:52.349Z,13.33
2017-10-01T22:40:20.837Z,13.32
2017-10-01T22:42:49.290Z,13.35
2017-10-01T22:45:17.800Z,13.37
2017-10-01T22:47:46.245Z,13.34
2017-10-01T22:50:15.477Z,13.34
2017-10-01T22:52:43.925Z,13.35
2017-10-01T22:55:13.153Z,13.37
2017-10-01T22:57:41.597Z,13.36
2017-10-01T23:00:10.915Z,13.41
2017-10-01T23:02:40.122Z,13.38
2017-10-01T23:05:08.588Z,13.36
2017-10-01T23:07:37.793Z,13.37
2017-10-01T23:10:07.041Z,13.36
2017-10-01T23:12:35.485Z,13.35
2017-10-01T23:15:03.991Z,13.34
2017-10-01T23:17:32.567Z,13.36
2017-10-01T23:20:01.017Z,13.36
2017-10-01T23:22:30.254Z,13.34
2017-10-01T23:24:58.706Z,13.34
2017-10-01T23:27:27.214Z,13.36
2017-10-01T23:29:55.702Z,13.37
2017-10-01T23:32:24.169Z,13.36
2017-10-01T23:34:52.605Z,13.42
2017-10-01T23:37:21.082Z,13.43
2017-10-01T23:39:49.529Z,13.41
2017-10-01T23:42:17.993Z,13.41
2017-10-01T23:44:46.437Z,13.40
2017-10-01T23:47:15.780Z,13.41
2017-10-01T23:49:44.275Z,13.39
2017-10-01T23:52:12.858Z,13.35
2017-10-01T23:54:41.339Z,13.37
2017-10-01T23:57:09.786Z,13.36
2017-10-01T23:59:39.025Z,13.38
